createdAt,value
2018-12-26T00:00:50.646Z,0.60
2018-12-26T00:03:20.541Z,0.70
2018-12-26T00:05:50.960Z,0.50
2018-12-26T00:08:20.860Z,0.50
2018-12-26T00:10:51.012Z,0.50
2018-12-26T00:13:21.164Z,0.50
2018-12-26T00:15:51.792Z,0.40
2018-12-26T00:18:21.814Z,0.40
2018-12-26T00:20:51.930Z,0.50
2018-12-26T00:23:22.194Z,0.50
2018-12-26T00:26:01.640Z,0.30
2018-12-26T00:28:26.737Z,0.40
2018-12-26T00:30:56.885Z,0.60
2018-12-26T00:33:26.767Z,0.70
2018-12-26T00:35:56.676Z,0.80
2018-12-26T00:38:26.619Z,0.70
2018-12-26T00:40:57.070Z,0.80
2018-12-26T00:43:27.171Z,0.60
2018-12-26T00:45:57.088Z,0.60
2018-12-26T00:48:27.279Z,0.60
2018-12-26T00:50:57.460Z,0.60
2018-12-26T00:53:27.740Z,0.60
2018-12-26T00:55:57.887Z,0.70
2018-12-26T00:58:27.777Z,0.70
2018-12-26T01:00:58.000Z,0.60
2018-12-26T01:03:28.418Z,0.50
2018-12-26T01:05:58.458Z,0.50
2018-12-26T01:08:28.696Z,0.50
2018-12-26T01:10:58.674Z,0.60
2018-12-26T01:13:28.947Z,0.70
2018-12-26T01:15:59.375Z,0.80
2018-12-26T01:18:29.294Z,0.70
2018-12-26T01:20:59.447Z,0.80
2018-12-26T01:23:29.433Z,0.70
2018-12-26T01:25:59.933Z,0.60
2018-12-26T01:28:29.832Z,0.50
2018-12-26T01:31:00.133Z,0.50
2018-12-26T01:33:30.354Z,0.50
2018-12-26T01:36:03.542Z,0.60
2018-12-26T01:38:33.722Z,0.50
2018-12-26T01:41:03.712Z,0.60
2018-12-26T01:43:33.614Z,0.60
2018-12-26T01:46:03.526Z,0.60
2018-12-26T01:48:33.977Z,0.60
2018-12-26T01:51:04.163Z,0.60
2018-12-26T01:53:34.060Z,0.60
2018-12-26T01:56:04.180Z,0.50
2018-12-26T01:58:34.087Z,0.40
2018-12-26T02:01:04.066Z,0.50
2018-12-26T02:03:34.157Z,0.50
2018-12-26T02:06:04.620Z,0.50
2018-12-26T02:08:34.598Z,0.40
2018-12-26T02:11:04.581Z,0.50
2018-12-26T02:13:34.568Z,0.60
2018-12-26T02:16:04.655Z,0.40
2018-12-26T02:18:35.627Z,0.30
2018-12-26T02:21:05.778Z,0.40
2018-12-26T02:23:35.985Z,0.40
2018-12-26T02:26:06.078Z,0.50
2018-12-26T02:28:36.225Z,0.40
2018-12-26T02:31:07.074Z,0.40
2018-12-26T02:33:37.061Z,0.40
2018-12-26T02:36:07.371Z,0.30
2018-12-26T02:38:37.321Z,0.20
2018-12-26T02:41:07.619Z,0.20
2018-12-26T02:43:37.547Z,0.40
2018-12-26T02:46:07.426Z,0.40
2018-12-26T02:48:37.371Z,0.30
2018-12-26T02:51:07.666Z,0.20
2018-12-26T02:53:38.090Z,0.20
2018-12-26T02:56:08.640Z,0.00
2018-12-26T02:58:38.940Z,0.20
2018-12-26T03:01:08.974Z,0.40
2018-12-26T03:03:39.110Z,0.50
2018-12-26T03:06:09.008Z,0.60
2018-12-26T03:08:39.161Z,0.50
2018-12-26T03:11:09.212Z,0.50
2018-12-26T03:13:39.259Z,0.50
2018-12-26T03:16:09.267Z,0.60
2018-12-26T03:18:39.422Z,0.50
2018-12-26T03:21:09.619Z,0.60
2018-12-26T03:23:39.510Z,0.60
2018-12-26T03:26:09.645Z,0.50
2018-12-26T03:28:39.706Z,0.40
2018-12-26T03:31:09.647Z,0.40
2018-12-26T03:33:39.683Z,0.30
2018-12-26T03:36:09.777Z,0.00
2018-12-26T03:38:39.955Z,-0.10
2018-12-26T03:41:10.023Z,-0.10
2018-12-26T03:43:40.642Z,0.20
2018-12-26T03:46:11.482Z,0.40
2018-12-26T03:48:41.471Z,0.50
2018-12-26T03:51:11.549Z,0.60
2018-12-26T03:53:42.102Z,0.60
2018-12-26T03:56:12.146Z,0.60
2018-12-26T03:58:42.695Z,0.50
2018-12-26T04:01:12.668Z,0.10
2018-12-26T04:03:42.768Z,0.00
2018-12-26T04:06:12.992Z,-0.10
2018-12-26T04:08:43.070Z,0.20
2018-12-26T04:11:13.375Z,0.20
2018-12-26T04:13:43.913Z,0.10
2018-12-26T04:16:13.980Z,0.00
2018-12-26T04:18:44.295Z,0.10
2018-12-26T04:21:14.655Z,0.10
2018-12-26T04:23:44.854Z,-0.10
2018-12-26T04:26:14.769Z,0.10
2018-12-26T04:28:44.668Z,0.30
2018-12-26T04:31:14.909Z,0.20
2018-12-26T04:33:45.150Z,0.20
2018-12-26T04:36:15.348Z,0.00
2018-12-26T04:38:45.249Z,0.10
2018-12-26T04:41:15.517Z,0.10
2018-12-26T04:43:45.514Z,0.10
2018-12-26T04:46:15.428Z,0.10
2018-12-26T04:48:45.341Z,0.10
2018-12-26T04:51:15.620Z,0.10
2018-12-26T04:53:45.548Z,0.00
2018-12-26T04:56:16.348Z,-0.10
2018-12-26T04:58:46.260Z,-0.20
2018-12-26T05:01:16.456Z,-0.20
2018-12-26T05:03:46.682Z,-0.40
2018-12-26T05:06:16.578Z,-0.60
2018-12-26T05:08:46.735Z,-0.60
2018-12-26T05:11:16.687Z,-0.30
2018-12-26T05:13:46.663Z,-0.10
2018-12-26T05:16:16.644Z,-0.20
2018-12-26T05:18:46.714Z,-0.10
2018-12-26T05:21:17.001Z,-0.20
2018-12-26T05:23:47.007Z,-0.30
2018-12-26T05:26:16.920Z,-0.50
2018-12-26T05:28:47.196Z,-0.50
2018-12-26T05:48:11.192Z,-0.20
2018-12-26T05:50:41.641Z,-0.10
2018-12-26T05:53:11.627Z,-0.20
2018-12-26T05:55:41.585Z,-0.30
2018-12-26T05:58:11.571Z,-0.60
2018-12-26T06:00:41.759Z,-0.50
2018-12-26T06:03:11.970Z,-0.50
2018-12-26T06:05:41.889Z,-0.70
2018-12-26T06:08:13.379Z,-0.70
2018-12-26T06:10:43.445Z,-0.80
2018-12-26T06:13:13.363Z,-0.90
2018-12-26T06:15:43.541Z,-0.80
2018-12-26T06:18:15.374Z,-0.60
2018-12-26T06:20:45.616Z,-0.40
2018-12-26T06:23:15.841Z,-0.40
2018-12-26T06:25:46.184Z,-0.40
2018-12-26T06:28:16.147Z,-0.30
2018-12-26T06:30:46.768Z,-0.20
2018-12-26T06:33:16.701Z,-0.20
2018-12-26T06:39:38.381Z,-0.60
2018-12-26T06:42:09.402Z,-0.40
2018-12-26T06:44:39.315Z,-0.70
2018-12-26T06:47:09.461Z,-0.70
2018-12-26T06:49:39.628Z,-0.60
2018-12-26T06:52:09.663Z,-0.50
2018-12-26T06:54:39.655Z,-0.60
2018-12-26T06:57:10.136Z,-0.50
2018-12-26T06:59:40.313Z,-0.50
2018-12-26T07:02:10.260Z,-0.60
2018-12-26T07:04:40.159Z,-0.50
2018-12-26T07:07:10.213Z,-0.40
2018-12-26T07:09:40.359Z,-0.60
2018-12-26T07:12:10.278Z,-0.60
2018-12-26T07:14:40.603Z,-0.60
2018-12-26T07:17:10.934Z,-0.80
2018-12-26T07:19:40.863Z,-0.80
2018-12-26T07:22:10.878Z,-0.60
2018-12-26T07:24:41.110Z,-0.50
2018-12-26T07:27:12.057Z,-0.50
2018-12-26T07:29:41.954Z,-0.30
2018-12-26T07:32:11.878Z,-0.50
2018-12-26T07:34:42.661Z,-0.50
2018-12-26T07:37:13.154Z,-0.60
2018-12-26T07:39:43.507Z,-0.80
2018-12-26T07:42:13.382Z,-0.70
2018-12-26T07:44:43.309Z,-0.40
2018-12-26T07:47:13.211Z,-0.30
2018-12-26T07:49:43.371Z,-0.20
2018-12-26T07:52:14.147Z,-0.30
2018-12-26T07:54:44.153Z,-0.20
2018-12-26T07:57:14.316Z,-0.10
2018-12-26T07:59:44.519Z,0.10
2018-12-26T08:02:14.675Z,0.00
2018-12-26T08:04:44.618Z,0.00
2018-12-26T08:07:14.537Z,-0.10
2018-12-26T08:09:44.733Z,-0.10
2018-12-26T08:12:14.649Z,-0.10
2018-12-26T08:14:44.950Z,0.00
2018-12-26T08:17:14.869Z,0.10
2018-12-26T08:19:44.859Z,0.00
2018-12-26T08:22:14.788Z,-0.10
2018-12-26T08:24:44.960Z,-0.10
2018-12-26T08:27:15.140Z,-0.10
2018-12-26T08:29:45.896Z,0.00
2018-12-26T08:32:15.882Z,-0.10
2018-12-26T08:34:45.859Z,-0.40
2018-12-26T08:37:15.781Z,-0.60
2018-12-26T08:51:15.205Z,-0.90
2018-12-26T08:53:47.251Z,-1.10
2018-12-26T08:56:17.837Z,-1.00
2018-12-26T08:58:48.039Z,-1.00
2018-12-26T09:05:10.748Z,-1.20
2018-12-26T09:07:41.013Z,-1.20
2018-12-26T09:10:11.400Z,-1.20
2018-12-26T09:12:42.085Z,-1.00
2018-12-26T09:15:12.413Z,-0.80
2018-12-26T09:29:12.531Z,-0.30
2018-12-26T09:31:42.727Z,0.00
2018-12-26T09:34:12.994Z,0.30
2018-12-26T09:36:43.214Z,-0.10
2018-12-26T09:39:13.130Z,-0.20
2018-12-26T09:41:43.482Z,-0.40
2018-12-26T09:44:14.015Z,-0.10
2018-12-26T09:46:44.414Z,-0.10
2018-12-26T09:49:14.680Z,0.20
2018-12-26T09:51:44.755Z,0.30
2018-12-26T09:54:15.669Z,0.40
2018-12-26T09:56:45.857Z,0.20
2018-12-26T09:59:15.830Z,0.30
2018-12-26T10:01:45.874Z,0.40
2018-12-26T10:04:15.797Z,0.20
2018-12-26T10:06:46.011Z,0.60
2018-12-26T10:09:16.169Z,0.70
2018-12-26T10:11:46.306Z,0.80
2018-12-26T10:14:16.230Z,0.50
2018-12-26T10:16:47.560Z,0.60
2018-12-26T10:19:17.560Z,0.70
2018-12-26T10:21:47.744Z,0.10
2018-12-26T10:24:18.166Z,-0.40
2018-12-26T10:26:48.105Z,-0.20
2018-12-26T10:29:17.992Z,0.10
2018-12-26T10:31:47.935Z,0.10
2018-12-26T10:34:17.842Z,0.30
2018-12-26T10:36:48.469Z,0.80
2018-12-26T10:39:18.735Z,0.80
2018-12-26T10:41:48.634Z,1.10
2018-12-26T10:44:19.057Z,1.40
2018-12-26T10:46:48.951Z,1.60
2018-12-26T10:49:18.866Z,1.50
2018-12-26T10:51:48.773Z,1.60
2018-12-26T10:54:18.708Z,0.60
2018-12-26T10:56:48.852Z,0.70
2018-12-26T10:59:19.061Z,0.80
2018-12-26T11:01:48.964Z,0.70
2018-12-26T11:04:19.212Z,0.90
2018-12-26T11:06:49.179Z,1.20
2018-12-26T11:09:19.113Z,1.60
2018-12-26T11:11:49.421Z,2.00
2018-12-26T11:14:19.580Z,1.70
2018-12-26T11:16:51.896Z,1.60
2018-12-26T11:19:22.223Z,1.70
2018-12-26T11:21:52.376Z,1.60
2018-12-26T11:24:22.270Z,2.00
2018-12-26T11:26:52.420Z,2.10
2018-12-26T11:29:22.586Z,1.70
2018-12-26T11:31:53.005Z,1.80
2018-12-26T11:34:23.150Z,1.90
2018-12-26T11:36:53.401Z,1.50
2018-12-26T11:39:23.798Z,1.10
2018-12-26T11:41:54.248Z,0.90
2018-12-26T11:44:24.209Z,0.90
2018-12-26T11:46:54.374Z,0.70
2018-12-26T11:49:24.488Z,1.00
2018-12-26T11:51:54.644Z,1.30
2018-12-26T11:54:24.909Z,1.50
2018-12-26T11:56:54.961Z,1.70
2018-12-26T11:59:27.309Z,2.00
2018-12-26T12:01:56.852Z,2.00
2018-12-26T12:04:26.844Z,1.60
2018-12-26T12:06:57.286Z,1.90
2018-12-26T12:09:27.316Z,2.00
2018-12-26T12:11:57.857Z,2.30
2018-12-26T12:14:28.288Z,2.20
2018-12-26T12:16:58.855Z,2.10
2018-12-26T12:19:28.847Z,2.10
2018-12-26T12:25:25.058Z,1.70
2018-12-26T12:27:54.971Z,1.50
2018-12-26T12:30:24.876Z,0.80
2018-12-26T12:32:54.848Z,1.00
2018-12-26T12:35:24.898Z,1.30
2018-12-26T12:37:54.947Z,1.60
2018-12-26T12:40:25.205Z,1.80
2018-12-26T12:42:55.434Z,1.70
2018-12-26T12:45:25.504Z,2.00
2018-12-26T12:47:55.819Z,1.60
2018-12-26T12:50:25.732Z,1.50
2018-12-26T12:52:55.914Z,1.50
2018-12-26T12:55:25.932Z,1.50
2018-12-26T12:57:56.077Z,1.70
2018-12-26T13:00:26.226Z,1.80
2018-12-26T13:03:00.324Z,1.90
2018-12-26T13:05:28.191Z,1.70
2018-12-26T13:07:58.305Z,1.20
2018-12-26T13:10:28.340Z,1.20
2018-12-26T13:12:58.662Z,1.00
2018-12-26T13:15:28.837Z,0.90
2018-12-26T13:17:59.338Z,1.00
2018-12-26T13:20:29.556Z,1.10
2018-12-26T13:22:59.995Z,1.00
2018-12-26T13:25:30.223Z,1.00
2018-12-26T13:28:00.143Z,1.10
2018-12-26T13:30:30.106Z,1.10
2018-12-26T13:33:00.018Z,1.20
2018-12-26T13:35:30.248Z,1.20
2018-12-26T13:38:00.569Z,1.00
2018-12-26T13:40:30.764Z,0.50
2018-12-26T13:43:00.831Z,0.40
2018-12-26T13:45:30.757Z,0.20
2018-12-26T13:48:00.912Z,0.20
2018-12-26T13:50:31.066Z,0.00
2018-12-26T13:53:00.976Z,0.10
2018-12-26T13:55:31.000Z,0.10
2018-12-26T13:58:00.970Z,-0.10
2018-12-26T14:00:31.171Z,-0.20
2018-12-26T14:03:01.083Z,-0.30
2018-12-26T14:05:34.596Z,-0.20
2018-12-26T14:08:04.591Z,-0.30
2018-12-26T14:10:34.788Z,-0.30
2018-12-26T14:13:05.127Z,-0.40
2018-12-26T14:15:35.333Z,-0.40
2018-12-26T14:18:05.302Z,-0.50
2018-12-26T14:20:35.798Z,-0.70
2018-12-26T14:23:06.054Z,-0.70
2018-12-26T14:25:35.975Z,-0.70
2018-12-26T14:28:06.268Z,-0.70
2018-12-26T14:30:36.419Z,-0.70
2018-12-26T14:33:06.352Z,-0.70
2018-12-26T14:35:36.296Z,-0.60
2018-12-26T14:38:06.476Z,-0.70
2018-12-26T14:40:36.387Z,-0.90
2018-12-26T14:43:06.880Z,-0.90
2018-12-26T14:45:37.028Z,-0.70
2018-12-26T14:48:07.321Z,-0.70
2018-12-26T14:50:37.409Z,-0.80
2018-12-26T14:53:07.715Z,-0.70
2018-12-26T14:55:37.693Z,-0.70
2018-12-26T14:58:07.712Z,-0.70
2018-12-26T15:00:37.898Z,-0.70
2018-12-26T15:03:07.810Z,-0.80
2018-12-26T15:05:38.119Z,-1.10
2018-12-26T15:08:08.655Z,-1.10
2018-12-26T15:10:38.739Z,-1.20
2018-12-26T15:13:08.660Z,-1.30
2018-12-26T15:15:38.585Z,-1.40
2018-12-26T15:18:08.743Z,-1.50
2018-12-26T15:20:38.682Z,-1.50
2018-12-26T15:23:08.862Z,-1.50
2018-12-26T15:25:38.784Z,-1.60
2018-12-26T15:28:08.998Z,-1.80
2018-12-26T15:30:38.923Z,-1.90
2018-12-26T15:33:09.168Z,-1.60
2018-12-26T15:35:39.182Z,-1.40
2018-12-26T15:38:09.107Z,-1.30
2018-12-26T15:40:39.042Z,-1.30
2018-12-26T15:43:09.257Z,-1.30
2018-12-26T15:45:40.005Z,-1.40
2018-12-26T15:48:09.976Z,-1.40
2018-12-26T15:50:40.461Z,-1.50
2018-12-26T15:53:10.366Z,-1.70
2018-12-26T15:55:40.546Z,-1.80
2018-12-26T15:58:10.576Z,-1.70
2018-12-26T16:04:13.707Z,-1.80
2018-12-26T16:06:43.658Z,-1.80
2018-12-26T16:09:13.812Z,-1.60
2018-12-26T16:11:43.789Z,-1.50
2018-12-26T16:14:14.264Z,-1.40
2018-12-26T16:16:44.190Z,-1.40
2018-12-26T16:19:14.410Z,-1.40
2018-12-26T16:21:44.629Z,-1.50
2018-12-26T16:24:14.758Z,-1.40
2018-12-26T16:26:45.079Z,-1.50
2018-12-26T16:29:15.286Z,-1.50
2018-12-26T16:31:45.276Z,-1.50
2018-12-26T16:34:15.972Z,-1.60
2018-12-26T16:36:46.131Z,-1.60
2018-12-26T16:39:16.037Z,-1.60
2018-12-26T16:41:46.195Z,-1.70
2018-12-26T16:44:16.116Z,-1.70
2018-12-26T16:46:46.117Z,-1.60
2018-12-26T16:49:16.056Z,-1.70
2018-12-26T16:51:46.241Z,-1.80
2018-12-26T16:54:16.158Z,-2.00
2018-12-26T16:56:47.038Z,-2.20
2018-12-26T16:59:17.212Z,-2.30
2018-12-26T17:01:47.384Z,-2.30
2018-12-26T17:04:17.332Z,-2.30
2018-12-26T17:06:48.672Z,-2.20
2018-12-26T17:09:19.658Z,-2.20
2018-12-26T17:11:49.631Z,-2.10
2018-12-26T17:14:19.800Z,-2.30
2018-12-26T17:16:49.725Z,-2.20
2018-12-26T17:19:19.621Z,-2.20
2018-12-26T17:21:50.284Z,-2.20
2018-12-26T17:24:20.425Z,-2.20
2018-12-26T17:26:50.328Z,-2.40
2018-12-26T17:29:20.743Z,-2.50
2018-12-26T17:31:51.241Z,-2.50
2018-12-26T17:34:21.715Z,-2.30
2018-12-26T17:36:51.970Z,-2.20
2018-12-26T17:39:21.960Z,-2.10
2018-12-26T17:41:52.749Z,-2.00
2018-12-26T17:44:23.467Z,-1.90
2018-12-26T17:46:53.384Z,-1.90
2018-12-26T17:49:23.769Z,-1.90
2018-12-26T17:51:53.934Z,-2.00
2018-12-26T17:54:50.733Z,-2.00
2018-12-26T17:57:28.180Z,-2.20
2018-12-26T18:00:32.542Z,-2.20
2018-12-26T18:03:02.830Z,-2.10
2018-12-26T18:05:33.302Z,-1.90
2018-12-26T18:08:03.279Z,-1.90
2018-12-26T18:10:33.557Z,-2.00
2018-12-26T18:13:03.445Z,-2.10
2018-12-26T18:15:33.358Z,-2.10
2018-12-26T18:18:03.254Z,-2.10
2018-12-26T18:20:33.163Z,-2.10
2018-12-26T18:23:03.142Z,-2.00
2018-12-26T18:25:33.563Z,-2.20
2018-12-26T18:28:03.890Z,-2.40
2018-12-26T18:30:34.142Z,-2.60
2018-12-26T18:33:04.132Z,-2.50
2018-12-26T18:35:34.055Z,-2.30
2018-12-26T18:38:04.198Z,-2.20
2018-12-26T18:40:34.137Z,-2.10
2018-12-26T18:43:04.544Z,-2.10
2018-12-26T18:45:34.488Z,-2.10
2018-12-26T18:48:04.517Z,-2.10
2018-12-26T18:50:34.502Z,-2.40
2018-12-26T18:53:04.670Z,-2.30
2018-12-26T18:55:34.954Z,-2.40
2018-12-26T18:58:05.110Z,-2.40
2018-12-26T19:00:35.388Z,-2.40
2018-12-26T19:03:05.781Z,-2.20
2018-12-26T19:05:36.478Z,-2.20
2018-12-26T19:08:06.391Z,-2.20
2018-12-26T19:10:36.344Z,-2.20
2018-12-26T19:13:06.767Z,-2.40
2018-12-26T19:15:37.401Z,-2.40
2018-12-26T19:18:07.304Z,-2.20
2018-12-26T19:20:37.485Z,-2.40
2018-12-26T19:23:07.966Z,-2.60
2018-12-26T19:25:38.149Z,-2.50
2018-12-26T19:28:08.374Z,-2.60
2018-12-26T19:30:38.410Z,-2.60
2018-12-26T19:33:08.318Z,-2.60
2018-12-26T19:35:38.222Z,-2.50
2018-12-26T19:38:08.412Z,-2.60
2018-12-26T19:40:38.432Z,-2.60
2018-12-26T19:43:08.376Z,-2.60
2018-12-26T19:45:40.198Z,-2.60
2018-12-26T19:48:10.189Z,-2.70
2018-12-26T19:50:40.090Z,-2.80
2018-12-26T19:53:09.994Z,-2.60
2018-12-26T19:55:40.250Z,-2.60
2018-12-26T19:58:10.192Z,-2.40
2018-12-26T20:00:40.296Z,-2.50
2018-12-26T20:03:10.492Z,-2.40
2018-12-26T20:05:40.392Z,-2.40
2018-12-26T20:08:10.310Z,-2.40
2018-12-26T20:10:40.453Z,-2.40
2018-12-26T20:13:10.506Z,-2.50
2018-12-26T20:15:40.612Z,-2.60
2018-12-26T20:18:10.520Z,-2.60
2018-12-26T20:20:40.672Z,-2.60
2018-12-26T20:23:10.825Z,-2.50
2018-12-26T20:25:40.820Z,-2.50
2018-12-26T20:28:11.566Z,-2.50
2018-12-26T20:30:41.825Z,-2.50
2018-12-26T20:33:11.987Z,-2.40
2018-12-26T20:35:42.126Z,-2.40
2018-12-26T20:38:12.366Z,-2.60
2018-12-26T20:40:42.537Z,-2.60
2018-12-26T20:43:12.782Z,-2.70
2018-12-26T20:45:42.935Z,-2.80
2018-12-26T20:48:12.862Z,-2.90
2018-12-26T20:50:43.794Z,-2.90
2018-12-26T20:53:13.961Z,-2.80
2018-12-26T20:55:43.865Z,-2.90
2018-12-26T20:58:13.785Z,-3.00
2018-12-26T21:00:43.703Z,-3.10
2018-12-26T21:03:13.617Z,-3.30
2018-12-26T21:05:44.157Z,-3.30
2018-12-26T21:08:14.500Z,-3.30
2018-12-26T21:10:44.525Z,-3.40
2018-12-26T21:13:14.472Z,-3.60
2018-12-26T21:15:44.770Z,-3.60
2018-12-26T21:18:15.189Z,-3.50
2018-12-26T21:20:45.657Z,-3.60
2018-12-26T21:23:15.739Z,-3.70
2018-12-26T21:25:46.787Z,-3.70
2018-12-26T21:28:17.098Z,-3.80
2018-12-26T21:30:47.063Z,-3.80
2018-12-26T21:33:16.982Z,-3.70
2018-12-26T21:35:47.218Z,-3.90
2018-12-26T21:38:17.144Z,-3.90
2018-12-26T21:40:47.835Z,-3.80
2018-12-26T21:43:18.098Z,-3.90
2018-12-26T21:45:48.475Z,-3.90
2018-12-26T21:48:19.651Z,-3.80
2018-12-26T21:50:49.849Z,-3.60
2018-12-26T21:53:19.779Z,-3.30
2018-12-26T21:55:50.197Z,-3.40
2018-12-26T21:58:20.607Z,-3.40
2018-12-26T22:00:50.840Z,-3.30
2018-12-26T22:03:21.001Z,-3.20
2018-12-26T22:05:51.161Z,-3.40
2018-12-26T22:08:21.738Z,-3.50
2018-12-26T22:10:51.763Z,-3.40
2018-12-26T22:13:22.182Z,-3.00
2018-12-26T22:15:52.128Z,-2.90
2018-12-26T22:18:22.072Z,-2.90
2018-12-26T22:20:51.991Z,-2.90
2018-12-26T22:23:22.524Z,-2.70
2018-12-26T22:25:52.418Z,-2.90
2018-12-26T22:28:24.204Z,-3.10
2018-12-26T22:30:54.125Z,-3.00
2018-12-26T22:33:24.113Z,-3.00
2018-12-26T22:35:54.043Z,-2.90
2018-12-26T22:38:24.227Z,-3.00
2018-12-26T22:40:55.140Z,-3.10
2018-12-26T22:43:25.059Z,-3.20
2018-12-26T22:45:55.265Z,-3.20
2018-12-26T22:48:25.183Z,-3.20
2018-12-26T22:50:55.511Z,-3.30
2018-12-26T22:53:25.448Z,-3.40
2018-12-26T22:55:55.341Z,-3.70
2018-12-26T22:58:25.513Z,-3.90
2018-12-26T23:00:55.656Z,-3.70
2018-12-26T23:03:25.598Z,-3.40
2018-12-26T23:05:56.165Z,-3.60
2018-12-26T23:08:26.336Z,-3.70
2018-12-26T23:10:56.238Z,-3.80
2018-12-26T23:13:26.178Z,-3.70
2018-12-26T23:15:56.315Z,-3.90
2018-12-26T23:18:26.562Z,-3.90
2018-12-26T23:20:56.490Z,-4.00
2018-12-26T23:23:26.706Z,-4.00
2018-12-26T23:25:56.888Z,-4.00
2018-12-26T23:28:27.397Z,-4.00
2018-12-26T23:30:57.806Z,-4.00
2018-12-26T23:33:27.761Z,-4.10
2018-12-26T23:35:57.935Z,-4.10
2018-12-26T23:38:27.944Z,-4.00
2018-12-26T23:40:58.084Z,-4.00
2018-12-26T23:43:28.235Z,-3.70
2018-12-26T23:45:58.255Z,-3.70
2018-12-26T23:48:28.417Z,-3.80
2018-12-26T23:50:58.565Z,-3.90
2018-12-26T23:53:28.523Z,-3.90
2018-12-26T23:55:58.428Z,-3.90
2018-12-26T23:58:28.878Z,-4.00
